Terminal Aerodrome Forecast
Issued by NWS

Home | Current Version | Previous Version | Text Only | Print | Product List | Glossary On
Versions: 1 2 3 4 5 6 7 8 9 10 11 12 13 14 15 16 17 18 19 20 21 22 23
000
FTUS46 KSEW 201128
TAFBFI
TAF
KBFI 201128Z 2012/2112 00000KT P6SM OVC027
     FM201300 14005KT 5SM -RA BR SCT012 BKN016 OVC027
     FM202100 VRB04KT P6SM -SHRA SCT018 BKN030 BKN050
     FM210000 VRB04KT P6SM SCT050 SCT250
     FM211000 VRB04KT P6SM OVC050=

USA.gov is the U.S. government's official web portal to all federal, state and local government web resources and services.